sensor_id;sensor_type;location;lat;lon;timestamp;pressure;altitude;pressure_sealevel;temperature;humidity
78509;BME280;67802;50.846;7.958;2023-04-12T00:01:33;97079.72;;;21.10;31.16
78509;BME280;67802;50.846;7.958;2023-04-12T00:03:58;97075.41;;;21.09;31.04
78509;BME280;67802;50.846;7.958;2023-04-12T00:06:24;97072.09;;;21.07;31.06
78509;BME280;67802;50.846;7.958;2023-04-12T00:08:59;97066.13;;;21.05;31.22
78509;BME280;67802;50.846;7.958;2023-04-12T00:11:24;97059.19;;;21.04;31.12
78509;BME280;67802;50.846;7.958;2023-04-12T00:13:51;97042.66;;;21.02;31.17
78509;BME280;67802;50.846;7.958;2023-04-12T00:16:16;97034.06;;;21.00;31.16
78509;BME280;67802;50.846;7.958;2023-04-12T00:18:42;97030.75;;;20.98;31.16
78509;BME280;67802;50.846;7.958;2023-04-12T00:21:10;97029.09;;;20.97;31.07
78509;BME280;67802;50.846;7.958;2023-04-12T00:23:35;97024.91;;;20.94;30.89
78509;BME280;67802;50.846;7.958;2023-04-12T00:26:02;97023.25;;;20.93;31.18
78509;BME280;67802;50.846;7.958;2023-04-12T00:28:28;97019.13;;;20.90;31.10
78509;BME280;67802;50.846;7.958;2023-04-12T00:30:53;97023.59;;;20.90;31.18
78509;BME280;67802;50.846;7.958;2023-04-12T00:33:19;97020.28;;;20.88;31.21
78509;BME280;67802;50.846;7.958;2023-04-12T00:35:44;97008.06;;;20.87;31.12
78509;BME280;67802;50.846;7.958;2023-04-12T00:38:09;97003.88;;;20.84;31.28
78509;BME280;67802;50.846;7.958;2023-04-12T00:40:36;97001.41;;;20.83;31.21
78509;BME280;67802;50.846;7.958;2023-04-12T00:43:05;97007.50;;;20.83;31.14
78509;BME280;67802;50.846;7.958;2023-04-12T00:45:30;97004.34;;;20.80;31.21
78509;BME280;67802;50.846;7.958;2023-04-12T00:47:56;97000.06;;;20.79;31.17
78509;BME280;67802;50.846;7.958;2023-04-12T00:50:21;97004.50;;;20.78;31.10
78509;BME280;67802;50.846;7.958;2023-04-12T00:52:47;96997.56;;;20.77;31.26
78509;BME280;67802;50.846;7.958;2023-04-12T00:55:12;96990.59;;;20.76;31.16
78509;BME280;67802;50.846;7.958;2023-04-12T00:57:39;96983.66;;;20.75;31.29
78509;BME280;67802;50.846;7.958;2023-04-12T01:00:06;96991.56;;;20.75;31.18
78509;BME280;67802;50.846;7.958;2023-04-12T01:02:40;96977.69;;;20.73;31.15
78509;BME280;67802;50.846;7.958;2023-04-12T01:05:07;96977.69;;;20.73;31.28
78509;BME280;67802;50.846;7.958;2023-04-12T01:07:43;96974.22;;;20.72;31.27
78509;BME280;67802;50.846;7.958;2023-04-12T01:15:59;96957.56;;;20.72;31.25
78509;BME280;67802;50.846;7.958;2023-04-12T01:18:29;96961.84;;;20.73;31.21
78509;BME280;67802;50.846;7.958;2023-04-12T01:21:03;96953.94;;;20.73;31.20
78509;BME280;67802;50.846;7.958;2023-04-12T01:23:42;96955.59;;;20.74;31.15
78509;BME280;67802;50.846;7.958;2023-04-12T01:29:01;96944.06;;;20.75;31.04
78509;BME280;67802;50.846;7.958;2023-04-12T01:31:29;96936.13;;;20.75;31.12
78509;BME280;67802;50.846;7.958;2023-04-12T01:33:56;96937.81;;;20.76;31.12
78509;BME280;67802;50.846;7.958;2023-04-12T01:36:24;96931.56;;;20.77;31.15
78509;BME280;67802;50.846;7.958;2023-04-12T01:38:52;96925.31;;;20.78;31.12
78509;BME280;67802;50.846;7.958;2023-04-12T01:41:18;96919.06;;;20.79;31.16
78509;BME280;67802;50.846;7.958;2023-04-12T01:43:45;96915.44;;;20.80;31.14
78509;BME280;67802;50.846;7.958;2023-04-12T01:46:12;96914.44;;;20.81;31.17
78509;BME280;67802;50.846;7.958;2023-04-12T01:51:09;96907.22;;;20.83;31.09
78509;BME280;67802;50.846;7.958;2023-04-12T01:53:42;96901.94;;;20.83;30.94
78509;BME280;67802;50.846;7.958;2023-04-12T01:56:10;96899.16;;;20.85;30.93
78509;BME280;67802;50.846;7.958;2023-04-12T01:58:41;96899.97;;;20.85;30.98
78509;BME280;67802;50.846;7.958;2023-04-12T02:01:08;96889.41;;;20.85;31.04
78509;BME280;67802;50.846;7.958;2023-04-12T02:03:36;96898.97;;;20.86;30.93
78509;BME280;67802;50.846;7.958;2023-04-12T02:06:02;96898.16;;;20.86;30.94
78509;BME280;67802;50.846;7.958;2023-04-12T02:08:29;96891.06;;;20.86;30.97
78509;BME280;67802;50.846;7.958;2023-04-12T02:10:54;96888.44;;;20.86;31.00
78509;BME280;67802;50.846;7.958;2023-04-12T02:13:20;96884.81;;;20.87;30.93
78509;BME280;67802;50.846;7.958;2023-04-12T02:15:45;96871.59;;;20.87;30.93
78509;BME280;67802;50.846;7.958;2023-04-12T02:18:11;96862.88;;;20.87;30.94
78509;BME280;67802;50.846;7.958;2023-04-12T02:20:37;96856.59;;;20.88;30.98
78509;BME280;67802;50.846;7.958;2023-04-12T02:23:03;96847.03;;;20.87;31.05
78509;BME280;67802;50.846;7.958;2023-04-12T02:25:28;96849.69;;;20.87;30.88
78509;BME280;67802;50.846;7.958;2023-04-12T02:27:53;96846.19;;;20.86;30.90
78509;BME280;67802;50.846;7.958;2023-04-12T02:30:19;96839.94;;;20.87;30.91
78509;BME280;67802;50.846;7.958;2023-04-12T02:32:45;96827.72;;;20.86;30.86
78509;BME280;67802;50.846;7.958;2023-04-12T02:35:14;96819.78;;;20.86;30.91
78509;BME280;67802;50.846;7.958;2023-04-12T02:37:46;96817.16;;;20.86;30.92
78509;BME280;67802;50.846;7.958;2023-04-12T02:40:13;96804.94;;;20.85;30.90
78509;BME280;67802;50.846;7.958;2023-04-12T02:42:40;96803.97;;;20.86;30.99
78509;BME280;67802;50.846;7.958;2023-04-12T02:45:07;96804.94;;;20.85;30.96
78509;BME280;67802;50.846;7.958;2023-04-12T02:47:32;96802.31;;;20.85;31.01
78509;BME280;67802;50.846;7.958;2023-04-12T02:49:58;96791.75;;;20.85;30.98
78509;BME280;67802;50.846;7.958;2023-04-12T02:52:23;96783.00;;;20.85;30.92
78509;BME280;67802;50.846;7.958;2023-04-12T02:54:49;96776.88;;;20.84;30.95
78509;BME280;67802;50.846;7.958;2023-04-12T02:57:15;96773.28;;;20.85;30.90
78509;BME280;67802;50.846;7.958;2023-04-12T02:59:40;96772.44;;;20.85;30.91
78509;BME280;67802;50.846;7.958;2023-04-12T03:02:06;96775.22;;;20.83;30.98
78509;BME280;67802;50.846;7.958;2023-04-12T03:04:31;96764.69;;;20.83;30.93
78509;BME280;67802;50.846;7.958;2023-04-12T03:06:57;96776.22;;;20.82;31.01
78509;BME280;67802;50.846;7.958;2023-04-12T03:09:23;96770.94;;;20.82;30.94
78509;BME280;67802;50.846;7.958;2023-04-12T03:11:49;96756.09;;;20.81;31.03
78509;BME280;67802;50.846;7.958;2023-04-12T03:14:15;96742.22;;;20.79;30.94
78509;BME280;67802;50.846;7.958;2023-04-12T03:16:40;96747.50;;;20.79;31.00
78509;BME280;67802;50.846;7.958;2023-04-12T03:19:05;96745.03;;;20.78;30.93
78509;BME280;67802;50.846;7.958;2023-04-12T03:21:31;96746.81;;;20.77;30.98
78509;BME280;67802;50.846;7.958;2023-04-12T03:23:58;96726.00;;;20.74;31.05
78509;BME280;67802;50.846;7.958;2023-04-12T03:26:23;96716.44;;;20.73;30.96
78509;BME280;67802;50.846;7.958;2023-04-12T03:28:53;96716.44;;;20.73;30.95
78509;BME280;67802;50.846;7.958;2023-04-12T03:31:18;96713.13;;;20.71;30.91
78509;BME280;67802;50.846;7.958;2023-04-12T03:33:45;96705.38;;;20.69;31.08
78509;BME280;67802;50.846;7.958;2023-04-12T03:36:11;96706.34;;;20.68;30.99
78509;BME280;67802;50.846;7.958;2023-04-12T03:38:36;96684.56;;;20.66;31.07
78509;BME280;67802;50.846;7.958;2023-04-12T03:41:01;96674.19;;;20.65;30.99
78509;BME280;67802;50.846;7.958;2023-04-12T03:43:27;96661.16;;;20.63;31.03
78509;BME280;67802;50.846;7.958;2023-04-12T03:45:52;96662.13;;;20.62;31.19
78509;BME280;67802;50.846;7.958;2023-04-12T03:48:18;96656.03;;;20.61;31.09
78509;BME280;67802;50.846;7.958;2023-04-12T03:50:43;96643.97;;;20.59;31.06
78509;BME280;67802;50.846;7.958;2023-04-12T03:53:11;96644.16;;;20.57;30.89
78509;BME280;67802;50.846;7.958;2023-04-12T03:55:37;96631.94;;;20.56;31.13
78509;BME280;67802;50.846;7.958;2023-04-12T03:58:03;96626.00;;;20.54;31.07
78509;BME280;67802;50.846;7.958;2023-04-12T04:00:29;96632.25;;;20.53;31.09
78509;BME280;67802;50.846;7.958;2023-04-12T04:02:56;96624.50;;;20.52;31.09
78509;BME280;67802;50.846;7.958;2023-04-12T04:05:30;96618.41;;;20.51;31.09
78509;BME280;67802;50.846;7.958;2023-04-12T04:07:56;96608.97;;;20.49;31.29
78509;BME280;67802;50.846;7.958;2023-04-12T04:10:29;96608.31;;;20.46;31.25
78509;BME280;67802;50.846;7.958;2023-04-12T04:12:55;96603.19;;;20.45;31.24
78509;BME280;67802;50.846;7.958;2023-04-12T04:15:20;96601.56;;;20.44;31.18
78509;BME280;67802;50.846;7.958;2023-04-12T04:17:46;96599.91;;;20.43;31.31
78509;BME280;67802;50.846;7.958;2023-04-12T04:20:13;96602.69;;;20.41;31.27
78509;BME280;67802;50.846;7.958;2023-04-12T04:22:38;96600.22;;;20.40;31.28
78509;BME280;67802;50.846;7.958;2023-04-12T04:25:04;96593.28;;;20.39;31.18
78509;BME280;67802;50.846;7.958;2023-04-12T04:27:30;96586.34;;;20.38;31.18
78509;BME280;67802;50.846;7.958;2023-04-12T04:30:01;96574.31;;;20.35;31.21
78509;BME280;67802;50.846;7.958;2023-04-12T04:32:27;96565.44;;;20.36;31.17
78509;BME280;67802;50.846;7.958;2023-04-12T04:34:56;96565.56;;;20.35;31.28
78509;BME280;67802;50.846;7.958;2023-04-12T04:37:24;96555.19;;;20.33;31.30
78509;BME280;67802;50.846;7.958;2023-04-12T04:39:50;96553.38;;;20.34;31.45
78509;BME280;67802;50.846;7.958;2023-04-12T04:42:15;96543.13;;;20.30;31.31
78509;BME280;67802;50.846;7.958;2023-04-12T04:44:41;96546.75;;;20.29;31.47
78509;BME280;67802;50.846;7.958;2023-04-12T04:47:06;96537.06;;;20.30;31.48
78509;BME280;67802;50.846;7.958;2023-04-12T04:49:32;96542.34;;;20.30;31.48
78509;BME280;67802;50.846;7.958;2023-04-12T04:51:58;96541.50;;;20.29;31.47
78509;BME280;67802;50.846;7.958;2023-04-12T04:54:23;96529.16;;;20.30;31.40
78509;BME280;67802;50.846;7.958;2023-04-12T04:56:48;96513.31;;;20.30;31.42
78509;BME280;67802;50.846;7.958;2023-04-12T04:59:14;96511.50;;;20.30;31.37
78509;BME280;67802;50.846;7.958;2023-04-12T05:01:41;96495.66;;;20.30;31.35
78509;BME280;67802;50.846;7.958;2023-04-12T05:04:07;96492.06;;;20.31;31.37
78509;BME280;67802;50.846;7.958;2023-04-12T05:06:32;96484.13;;;20.31;31.36
78509;BME280;67802;50.846;7.958;2023-04-12T05:08:57;96488.44;;;20.33;31.32
78509;BME280;67802;50.846;7.958;2023-04-12T05:11:24;96483.16;;;20.33;31.39
78509;BME280;67802;50.846;7.958;2023-04-12T05:13:50;96484.81;;;20.34;31.20
78509;BME280;67802;50.846;7.958;2023-04-12T05:16:15;96481.19;;;20.35;31.32
78509;BME280;67802;50.846;7.958;2023-04-12T05:18:41;96482.84;;;20.36;31.20
78509;BME280;67802;50.846;7.958;2023-04-12T05:21:06;96476.75;;;20.35;31.18
78509;BME280;67802;50.846;7.958;2023-04-12T05:23:36;96468.66;;;20.37;31.23
78509;BME280;67802;50.846;7.958;2023-04-12T05:26:02;96459.75;;;20.38;31.26
78509;BME280;67802;50.846;7.958;2023-04-12T05:28:27;96459.75;;;20.38;31.08
78509;BME280;67802;50.846;7.958;2023-04-12T05:30:53;96466.69;;;20.39;31.19
78509;BME280;67802;50.846;7.958;2023-04-12T05:33:18;96467.69;;;20.38;31.05
78509;BME280;67802;50.846;7.958;2023-04-12T05:35:43;96450.88;;;20.39;31.08
78509;BME280;67802;50.846;7.958;2023-04-12T05:38:09;96446.44;;;20.39;31.15
78509;BME280;67802;50.846;7.958;2023-04-12T05:40:34;96441.16;;;20.39;31.06
78509;BME280;67802;50.846;7.958;2023-04-12T05:43:00;96435.03;;;20.39;31.03
78509;BME280;67802;50.846;7.958;2023-04-12T05:45:26;96432.41;;;20.39;31.13
78509;BME280;67802;50.846;7.958;2023-04-12T05:47:52;96441.16;;;20.39;31.08
78509;BME280;67802;50.846;7.958;2023-04-12T05:50:18;96430.59;;;20.39;31.04
78509;BME280;67802;50.846;7.958;2023-04-12T05:52:44;96423.50;;;20.40;30.99
78509;BME280;67802;50.846;7.958;2023-04-12T05:55:10;96419.22;;;20.39;31.15
78509;BME280;67802;50.846;7.958;2023-04-12T05:57:35;96415.78;;;20.38;31.13
78509;BME280;67802;50.846;7.958;2023-04-12T06:00:00;96414.94;;;20.38;31.04
78509;BME280;67802;50.846;7.958;2023-04-12T06:02:26;96412.28;;;20.38;31.07
78509;BME280;67802;50.846;7.958;2023-04-12T06:04:51;96415.78;;;20.38;30.99
78509;BME280;67802;50.846;7.958;2023-04-12T06:07:18;96410.66;;;20.37;31.07
78509;BME280;67802;50.846;7.958;2023-04-12T06:09:43;96403.56;;;20.37;31.08
78509;BME280;67802;50.846;7.958;2023-04-12T06:12:08;96406.34;;;20.36;31.28
78509;BME280;67802;50.846;7.958;2023-04-12T06:14:34;96405.38;;;20.37;30.89
78509;BME280;67802;50.846;7.958;2023-04-12T06:17:00;96395.00;;;20.35;31.10
78509;BME280;67802;50.846;7.958;2023-04-12T06:19:28;96395.00;;;20.35;31.14
78509;BME280;67802;50.846;7.958;2023-04-12T06:21:53;96389.72;;;20.35;31.20
78509;BME280;67802;50.846;7.958;2023-04-12T06:24:18;96391.53;;;20.35;31.03
78509;BME280;67802;50.846;7.958;2023-04-12T06:26:44;96395.97;;;20.34;31.05
78509;BME280;67802;50.846;7.958;2023-04-12T06:29:11;96390.84;;;20.33;31.19
78509;BME280;67802;50.846;7.958;2023-04-12T06:31:36;96387.41;;;20.32;31.31
78509;BME280;67802;50.846;7.958;2023-04-12T06:34:01;96390.03;;;20.32;31.13
78509;BME280;67802;50.846;7.958;2023-04-12T06:36:27;96384.91;;;20.30;31.15
78509;BME280;67802;50.846;7.958;2023-04-12T06:38:52;96374.38;;;20.30;31.16
78509;BME280;67802;50.846;7.958;2023-04-12T06:41:19;96374.38;;;20.30;31.07
78509;BME280;67802;50.846;7.958;2023-04-12T06:43:44;96364.81;;;20.29;31.10
78509;BME280;67802;50.846;7.958;2023-04-12T06:46:09;96354.25;;;20.29;31.03
78509;BME280;67802;50.846;7.958;2023-04-12T06:48:35;96354.44;;;20.28;31.27
78509;BME280;67802;50.846;7.958;2023-04-12T06:51:00;96349.97;;;20.28;31.20
78509;BME280;67802;50.846;7.958;2023-04-12T06:53:25;96343.06;;;20.27;31.29
78509;BME280;67802;50.846;7.958;2023-04-12T06:55:51;96343.06;;;20.27;31.14
78509;BME280;67802;50.846;7.958;2023-04-12T06:58:17;96336.13;;;20.26;31.30
78509;BME280;67802;50.846;7.958;2023-04-12T07:00:43;96327.56;;;20.24;31.21
78509;BME280;67802;50.846;7.958;2023-04-12T07:03:08;96324.91;;;20.24;31.22
78509;BME280;67802;50.846;7.958;2023-04-12T07:05:37;96317.00;;;20.24;31.29
78509;BME280;67802;50.846;7.958;2023-04-12T07:08:02;96313.72;;;20.22;31.20
78509;BME280;67802;50.846;7.958;2023-04-12T07:10:27;96309.28;;;20.23;31.06
78509;BME280;67802;50.846;7.958;2023-04-12T07:12:53;96312.06;;;20.21;31.23
78509;BME280;67802;50.846;7.958;2023-04-12T07:15:18;96311.09;;;20.22;31.31
78509;BME280;67802;50.846;7.958;2023-04-12T07:17:43;96297.91;;;20.22;31.58
78509;BME280;67802;50.846;7.958;2023-04-12T07:20:09;96278.13;;;20.26;31.65
78509;BME280;67802;50.846;7.958;2023-04-12T07:22:35;96283.06;;;20.29;31.61
78509;BME280;67802;50.846;7.958;2023-04-12T07:25:00;96275.66;;;20.33;31.76
78509;BME280;67802;50.846;7.958;2023-04-12T07:27:25;96272.84;;;20.35;31.76
78509;BME280;67802;50.846;7.958;2023-04-12T07:29:51;96269.22;;;20.36;31.89
78509;BME280;67802;50.846;7.958;2023-04-12T07:32:19;96264.59;;;20.38;31.83
78509;BME280;67802;50.846;7.958;2023-04-12T07:34:45;96254.38;;;20.35;32.06
78509;BME280;67802;50.846;7.958;2023-04-12T07:37:10;96261.50;;;20.26;31.88
78509;BME280;67802;50.846;7.958;2023-04-12T07:39:36;96246.66;;;20.16;31.98
78509;BME280;67802;50.846;7.958;2023-04-12T07:42:04;96250.81;;;20.11;32.09
78509;BME280;67802;50.846;7.958;2023-04-12T07:44:30;96250.47;;;20.06;32.03
78509;BME280;67802;50.846;7.958;2023-04-12T07:46:55;96250.13;;;20.00;32.12
78509;BME280;67802;50.846;7.958;2023-04-12T07:49:21;96238.28;;;19.96;32.07
78509;BME280;67802;50.846;7.958;2023-04-12T07:51:46;96246.50;;;19.93;32.21
78509;BME280;67802;50.846;7.958;2023-04-12T07:54:11;96234.00;;;19.95;32.28
78509;BME280;67802;50.846;7.958;2023-04-12T07:56:37;96228.38;;;19.98;32.31
78509;BME280;67802;50.846;7.958;2023-04-12T07:59:02;96223.13;;;19.98;32.21
78509;BME280;67802;50.846;7.958;2023-04-12T08:01:27;96230.03;;;19.99;32.21
78509;BME280;67802;50.846;7.958;2023-04-12T08:03:53;96220.47;;;19.98;32.19
78509;BME280;67802;50.846;7.958;2023-04-12T08:06:18;96214.22;;;19.99;32.00
78509;BME280;67802;50.846;7.958;2023-04-12T08:08:43;96214.22;;;19.99;32.16
78509;BME280;67802;50.846;7.958;2023-04-12T08:11:09;96202.03;;;19.98;32.19
78509;BME280;67802;50.846;7.958;2023-04-12T08:13:35;96200.38;;;19.97;32.18
78509;BME280;67802;50.846;7.958;2023-04-12T08:16:00;96193.47;;;19.96;32.08
78509;BME280;67802;50.846;7.958;2023-04-12T08:18:26;96187.34;;;19.96;32.08
78509;BME280;67802;50.846;7.958;2023-04-12T08:20:53;96193.47;;;19.96;32.18
78509;BME280;67802;50.846;7.958;2023-04-12T08:23:18;96187.34;;;19.96;32.13
78509;BME280;67802;50.846;7.958;2023-04-12T08:25:44;96182.28;;;19.94;32.12
78509;BME280;67802;50.846;7.958;2023-04-12T08:28:09;96187.53;;;19.94;32.02
78509;BME280;67802;50.846;7.958;2023-04-12T08:30:34;96183.91;;;19.95;32.19
78509;BME280;67802;50.846;7.958;2023-04-12T08:33:00;96182.94;;;19.96;32.15
78509;BME280;67802;50.846;7.958;2023-04-12T08:35:26;96185.56;;;19.96;32.23
78509;BME280;67802;50.846;7.958;2023-04-12T08:37:51;96175.81;;;19.97;32.08
78509;BME280;67802;50.846;7.958;2023-04-12T08:40:16;96170.56;;;19.97;32.34
78509;BME280;67802;50.846;7.958;2023-04-12T08:42:42;96170.41;;;19.98;32.04
78509;BME280;67802;50.846;7.958;2023-04-12T08:45:11;96158.88;;;19.99;32.08
78509;BME280;67802;50.846;7.958;2023-04-12T08:47:39;96164.81;;;20.01;31.90
78509;BME280;67802;50.846;7.958;2023-04-12T08:50:06;96164.47;;;20.05;31.90
78509;BME280;67802;50.846;7.958;2023-04-12T08:52:35;96160.84;;;20.06;31.94
78509;BME280;67802;50.846;7.958;2023-04-12T08:55:04;96155.25;;;20.09;31.97
78509;BME280;67802;50.846;7.958;2023-04-12T08:57:30;96153.41;;;20.09;31.76
78509;BME280;67802;50.846;7.958;2023-04-12T09:00:00;96153.25;;;20.11;31.80
78509;BME280;67802;50.846;7.958;2023-04-12T09:02:26;96148.66;;;20.13;31.84
78509;BME280;67802;50.846;7.958;2023-04-12T09:04:52;96148.47;;;20.14;31.86
78509;BME280;67802;50.846;7.958;2023-04-12T09:07:18;96143.00;;;20.16;31.83
78509;BME280;67802;50.846;7.958;2023-04-12T09:09:45;96135.75;;;20.18;31.83
78509;BME280;67802;50.846;7.958;2023-04-12T09:12:11;96134.78;;;20.19;31.74
78509;BME280;67802;50.846;7.958;2023-04-12T09:14:38;96134.44;;;20.22;31.76
78509;BME280;67802;50.846;7.958;2023-04-12T09:17:05;96138.72;;;20.23;31.88
78509;BME280;67802;50.846;7.958;2023-04-12T09:19:44;96116.63;;;20.24;31.72
78509;BME280;67802;50.846;7.958;2023-04-12T09:22:10;96122.75;;;20.25;31.68
78509;BME280;67802;50.846;7.958;2023-04-12T09:24:45;96119.94;;;20.26;31.68
78509;BME280;67802;50.846;7.958;2023-04-12T09:27:11;96117.13;;;20.28;31.59
78509;BME280;67802;50.846;7.958;2023-04-12T09:29:36;96125.69;;;20.30;31.66
78509;BME280;67802;50.846;7.958;2023-04-12T09:32:04;96112.34;;;20.31;31.55
78509;BME280;67802;50.846;7.958;2023-04-12T09:34:30;96113.97;;;20.33;31.57
78509;BME280;67802;50.846;7.958;2023-04-12T09:36:56;96110.34;;;20.34;31.68
78509;BME280;67802;50.846;7.958;2023-04-12T09:39:34;96108.38;;;20.36;31.60
78509;BME280;67802;50.846;7.958;2023-04-12T09:42:06;96100.44;;;20.36;31.50
78509;BME280;67802;50.846;7.958;2023-04-12T09:44:32;96105.72;;;20.36;31.63
78509;BME280;67802;50.846;7.958;2023-04-12T09:46:58;96096.00;;;20.36;31.62
78509;BME280;67802;50.846;7.958;2023-04-12T09:49:42;96097.81;;;20.36;31.55
78509;BME280;67802;50.846;7.958;2023-04-12T09:52:11;96095.19;;;20.36;31.61
78509;BME280;67802;50.846;7.958;2023-04-12T09:54:41;96088.91;;;20.37;31.51
78509;BME280;67802;50.846;7.958;2023-04-12T09:57:07;96090.75;;;20.36;31.62
78509;BME280;67802;50.846;7.958;2023-04-12T09:59:36;96085.63;;;20.35;31.64
78509;BME280;67802;50.846;7.958;2023-04-12T10:02:06;96084.63;;;20.36;31.62
78509;BME280;67802;50.846;7.958;2023-04-12T10:04:33;96085.28;;;20.38;31.68
78509;BME280;67802;50.846;7.958;2023-04-12T10:07:00;96073.75;;;20.39;31.76
78509;BME280;67802;50.846;7.958;2023-04-12T10:09:26;96079.66;;;20.41;31.90
78509;BME280;67802;50.846;7.958;2023-04-12T10:11:52;96091.53;;;20.45;31.87
78509;BME280;67802;50.846;7.958;2023-04-12T10:14:19;96080.78;;;20.46;32.01
78509;BME280;67802;50.846;7.958;2023-04-12T10:16:45;96086.72;;;20.49;32.30
78509;BME280;67802;50.846;7.958;2023-04-12T10:19:13;96077.69;;;20.43;31.88
78509;BME280;67802;50.846;7.958;2023-04-12T10:21:38;96077.56;;;20.36;32.31
78509;BME280;67802;50.846;7.958;2023-04-12T10:24:04;96074.75;;;20.38;32.13
78509;BME280;67802;50.846;7.958;2023-04-12T10:26:31;96079.66;;;20.41;32.25
78509;BME280;67802;50.846;7.958;2023-04-12T10:29:22;96079.31;;;20.44;32.18
78509;BME280;67802;50.846;7.958;2023-04-12T10:31:48;96078.16;;;20.46;32.18
78509;BME280;67802;50.846;7.958;2023-04-12T10:34:14;96076.81;;;20.51;32.14
78509;BME280;67802;50.846;7.958;2023-04-12T10:36:53;96067.75;;;20.53;32.17
78509;BME280;67802;50.846;7.958;2023-04-12T10:39:37;96069.41;;;20.54;32.15
78509;BME280;67802;50.846;7.958;2023-04-12T10:42:19;96063.78;;;20.57;32.24
78509;BME280;67802;50.846;7.958;2023-04-12T10:44:46;96062.78;;;20.58;32.38
78509;BME280;67802;50.846;7.958;2023-04-12T10:47:11;96063.59;;;20.59;32.24
78509;BME280;67802;50.846;7.958;2023-04-12T10:49:37;96065.44;;;20.58;32.23
78509;BME280;67802;50.846;7.958;2023-04-12T10:54:35;96053.03;;;20.59;32.09
78509;BME280;67802;50.846;7.958;2023-04-12T10:57:01;96056.50;;;20.59;32.17
78509;BME280;67802;50.846;7.958;2023-04-12T10:59:50;96048.59;;;20.59;32.28
78509;BME280;67802;50.846;7.958;2023-04-12T11:02:15;96037.06;;;20.60;32.21
78509;BME280;67802;50.846;7.958;2023-04-12T11:05:03;96052.03;;;20.60;32.18
78509;BME280;67802;50.846;7.958;2023-04-12T11:07:42;96050.28;;;20.52;32.16
78509;BME280;67802;50.846;7.958;2023-04-12T11:10:15;96049.78;;;20.49;32.28
78509;BME280;67802;50.846;7.958;2023-04-12T11:12:52;96053.06;;;20.51;32.27
78509;BME280;67802;50.846;7.958;2023-04-12T11:15:25;96052.91;;;20.52;32.28
78509;BME280;67802;50.846;7.958;2023-04-12T11:17:55;96045.00;;;20.52;32.39
78509;BME280;67802;50.846;7.958;2023-04-12T11:20:20;96034.13;;;20.55;32.43
78509;BME280;67802;50.846;7.958;2023-04-12T11:22:47;96039.38;;;20.55;32.35
78509;BME280;67802;50.846;7.958;2023-04-12T11:25:16;96040.38;;;20.54;32.23
78509;BME280;67802;50.846;7.958;2023-04-12T11:27:48;96037.75;;;20.54;32.34
78509;BME280;67802;50.846;7.958;2023-04-12T11:30:14;96034.13;;;20.55;32.32
78509;BME280;67802;50.846;7.958;2023-04-12T11:32:39;96030.47;;;20.56;32.33
78509;BME280;67802;50.846;7.958;2023-04-12T11:35:06;96026.84;;;20.57;32.23
78509;BME280;67802;50.846;7.958;2023-04-12T11:37:31;96032.94;;;20.58;32.32
78509;BME280;67802;50.846;7.958;2023-04-12T11:39:57;96032.59;;;20.61;32.32
78509;BME280;67802;50.846;7.958;2023-04-12T11:42:23;96038.50;;;20.63;32.11
78509;BME280;67802;50.846;7.958;2023-04-12T11:44:49;96038.34;;;20.65;32.25
78509;BME280;67802;50.846;7.958;2023-04-12T11:47:17;96035.53;;;20.66;32.27
78509;BME280;67802;50.846;7.958;2023-04-12T11:49:45;96035.97;;;20.70;32.33
78509;BME280;67802;50.846;7.958;2023-04-12T11:52:10;96031.34;;;20.72;32.29
78509;BME280;67802;50.846;7.958;2023-04-12T11:54:37;96023.09;;;20.75;32.27
78509;BME280;67802;50.846;7.958;2023-04-12T11:57:02;96017.81;;;20.75;32.32
78509;BME280;67802;50.846;7.958;2023-04-12T11:59:31;96021.13;;;20.77;32.30
78509;BME280;67802;50.846;7.958;2023-04-12T12:01:59;96022.63;;;20.80;32.24
78509;BME280;67802;50.846;7.958;2023-04-12T12:04:27;96023.44;;;20.80;32.18
78509;BME280;67802;50.846;7.958;2023-04-12T12:06:55;96015.50;;;20.80;32.30
78509;BME280;67802;50.846;7.958;2023-04-12T12:09:21;96004.94;;;20.80;32.22
78509;BME280;67802;50.846;7.958;2023-04-12T12:11:46;96006.78;;;20.80;32.24
78509;BME280;67802;50.846;7.958;2023-04-12T12:14:17;96009.44;;;20.80;32.25
78509;BME280;67802;50.846;7.958;2023-04-12T12:16:51;96006.59;;;20.81;32.17
78509;BME280;67802;50.846;7.958;2023-04-12T12:22:18;96002.81;;;20.84;32.18
78509;BME280;67802;50.846;7.958;2023-04-12T12:25:04;96000.81;;;20.86;32.18
78509;BME280;67802;50.846;7.958;2023-04-12T12:29:54;96002.25;;;20.88;32.18
78509;BME280;67802;50.846;7.958;2023-04-12T12:32:21;96005.91;;;20.87;32.60
78509;BME280;67802;50.846;7.958;2023-04-12T12:34:51;96002.31;;;20.80;33.66
78509;BME280;67802;50.846;7.958;2023-04-12T12:37:19;96003.97;;;20.73;34.15
78509;BME280;67802;50.846;7.958;2023-04-12T12:40:08;95998.63;;;20.58;34.46
78509;BME280;67802;50.846;7.958;2023-04-12T12:42:48;95994.91;;;20.52;34.40
78509;BME280;67802;50.846;7.958;2023-04-12T12:45:15;95990.78;;;20.50;34.63
78509;BME280;67802;50.846;7.958;2023-04-12T12:47:48;95984.03;;;20.47;34.55
78509;BME280;67802;50.846;7.958;2023-04-12T12:50:22;95981.56;;;20.45;34.74
78509;BME280;67802;50.846;7.958;2023-04-12T12:52:48;95978.47;;;20.42;34.69
78509;BME280;67802;50.846;7.958;2023-04-12T12:55:14;95973.53;;;20.39;34.89
78509;BME280;67802;50.846;7.958;2023-04-12T12:57:41;95988.72;;;20.37;34.68
78509;BME280;67802;50.846;7.958;2023-04-12T13:00:07;95972.44;;;20.33;34.54
78509;BME280;67802;50.846;7.958;2023-04-12T13:02:34;95970.78;;;20.32;34.37
78509;BME280;67802;50.846;7.958;2023-04-12T13:04:59;95961.53;;;20.36;34.11
78509;BME280;67802;50.846;7.958;2023-04-12T13:07:26;95969.72;;;20.41;34.07
78509;BME280;67802;50.846;7.958;2023-04-12T13:09:52;95973.50;;;20.47;34.02
78509;BME280;67802;50.846;7.958;2023-04-12T13:12:17;95968.53;;;20.52;33.78
78509;BME280;67802;50.846;7.958;2023-04-12T13:14:42;95969.63;;;20.58;33.41
78509;BME280;67802;50.846;7.958;2023-04-12T13:17:07;95968.13;;;20.64;33.45
78509;BME280;67802;50.846;7.958;2023-04-12T13:19:33;95974.66;;;20.68;33.44